sensor_id;sensor_type;location;lat;lon;timestamp;temperature;humidity
6106;DHT22;3083;51.508;7.966;2024-01-07T00:01:03;1.30;99.90
6106;DHT22;3083;51.508;7.966;2024-01-07T00:03:31;1.30;99.90
6106;DHT22;3083;51.508;7.966;2024-01-07T00:05:58;1.20;99.90
6106;DHT22;3083;51.508;7.966;2024-01-07T00:08:25;1.30;99.90
6106;DHT22;3083;51.508;7.966;2024-01-07T00:10:51;1.30;99.90
6106;DHT22;3083;51.508;7.966;2024-01-07T00:13:18;1.20;99.90
6106;DHT22;3083;51.508;7.966;2024-01-07T00:15:45;1.20;99.90
6106;DHT22;3083;51.508;7.966;2024-01-07T00:18:12;1.10;99.90
6106;DHT22;3083;51.508;7.966;2024-01-07T00:20:40;1.20;99.90
6106;DHT22;3083;51.508;7.966;2024-01-07T00:23:07;1.10;99.90
6106;DHT22;3083;51.508;7.966;2024-01-07T00:25:34;1.10;99.90
6106;DHT22;3083;51.508;7.966;2024-01-07T00:28:00;1.10;99.90
6106;DHT22;3083;51.508;7.966;2024-01-07T00:30:27;1.00;99.90
6106;DHT22;3083;51.508;7.966;2024-01-07T00:32:55;1.00;99.90
6106;DHT22;3083;51.508;7.966;2024-01-07T00:35:21;1.00;99.90
6106;DHT22;3083;51.508;7.966;2024-01-07T00:37:49;1.00;99.90
6106;DHT22;3083;51.508;7.966;2024-01-07T00:40:16;1.00;99.90
6106;DHT22;3083;51.508;7.966;2024-01-07T00:42:43;1.00;99.90
6106;DHT22;3083;51.508;7.966;2024-01-07T00:45:10;1.00;99.90
6106;DHT22;3083;51.508;7.966;2024-01-07T00:47:37;1.00;99.90
6106;DHT22;3083;51.508;7.966;2024-01-07T00:50:04;1.00;99.90
6106;DHT22;3083;51.508;7.966;2024-01-07T00:52:31;1.00;99.90
6106;DHT22;3083;51.508;7.966;2024-01-07T00:54:59;1.00;99.90
6106;DHT22;3083;51.508;7.966;2024-01-07T00:57:29;0.90;99.90
6106;DHT22;3083;51.508;7.966;2024-01-07T00:59:55;1.00;99.90
6106;DHT22;3083;51.508;7.966;2024-01-07T01:02:22;1.00;99.90
6106;DHT22;3083;51.508;7.966;2024-01-07T01:04:49;1.00;99.90
6106;DHT22;3083;51.508;7.966;2024-01-07T01:07:16;1.00;99.90
6106;DHT22;3083;51.508;7.966;2024-01-07T01:09:43;1.00;99.90
6106;DHT22;3083;51.508;7.966;2024-01-07T01:12:11;1.00;99.90
6106;DHT22;3083;51.508;7.966;2024-01-07T01:14:38;1.00;99.90
6106;DHT22;3083;51.508;7.966;2024-01-07T01:17:04;1.00;99.90
6106;DHT22;3083;51.508;7.966;2024-01-07T01:19:31;1.00;99.90
6106;DHT22;3083;51.508;7.966;2024-01-07T01:21:58;0.90;99.90
6106;DHT22;3083;51.508;7.966;2024-01-07T01:24:25;0.90;99.90
6106;DHT22;3083;51.508;7.966;2024-01-07T01:26:52;0.90;99.90
6106;DHT22;3083;51.508;7.966;2024-01-07T01:29:20;0.90;99.90
6106;DHT22;3083;51.508;7.966;2024-01-07T01:31:47;0.80;99.90
6106;DHT22;3083;51.508;7.966;2024-01-07T01:34:14;0.80;99.90
6106;DHT22;3083;51.508;7.966;2024-01-07T01:36:41;0.80;99.90
6106;DHT22;3083;51.508;7.966;2024-01-07T01:39:07;0.80;99.90
6106;DHT22;3083;51.508;7.966;2024-01-07T01:41:34;0.80;99.90
6106;DHT22;3083;51.508;7.966;2024-01-07T01:44:01;0.80;99.90
6106;DHT22;3083;51.508;7.966;2024-01-07T01:46:29;0.80;99.90
6106;DHT22;3083;51.508;7.966;2024-01-07T01:48:57;0.80;99.90
6106;DHT22;3083;51.508;7.966;2024-01-07T01:51:24;0.80;99.90
6106;DHT22;3083;51.508;7.966;2024-01-07T01:53:52;0.80;99.90
6106;DHT22;3083;51.508;7.966;2024-01-07T01:56:20;0.80;99.90
6106;DHT22;3083;51.508;7.966;2024-01-07T01:58:47;0.80;99.90
6106;DHT22;3083;51.508;7.966;2024-01-07T02:01:14;0.80;99.90
6106;DHT22;3083;51.508;7.966;2024-01-07T02:03:42;0.70;99.90
6106;DHT22;3083;51.508;7.966;2024-01-07T02:06:09;0.70;99.90
6106;DHT22;3083;51.508;7.966;2024-01-07T02:08:37;0.70;99.90
6106;DHT22;3083;51.508;7.966;2024-01-07T02:11:17;0.70;99.90
6106;DHT22;3083;51.508;7.966;2024-01-07T02:13:44;0.70;99.90
6106;DHT22;3083;51.508;7.966;2024-01-07T02:16:12;0.60;99.90
6106;DHT22;3083;51.508;7.966;2024-01-07T02:18:42;0.60;99.90
6106;DHT22;3083;51.508;7.966;2024-01-07T02:21:10;0.60;99.90
6106;DHT22;3083;51.508;7.966;2024-01-07T02:23:37;0.50;99.90
6106;DHT22;3083;51.508;7.966;2024-01-07T02:26:05;0.50;99.90
6106;DHT22;3083;51.508;7.966;2024-01-07T02:28:32;0.50;99.90
6106;DHT22;3083;51.508;7.966;2024-01-07T02:30:59;0.50;99.90
6106;DHT22;3083;51.508;7.966;2024-01-07T02:33:26;0.50;99.90
6106;DHT22;3083;51.508;7.966;2024-01-07T02:35:53;0.50;99.90
6106;DHT22;3083;51.508;7.966;2024-01-07T02:38:20;0.50;99.90
6106;DHT22;3083;51.508;7.966;2024-01-07T02:40:47;0.40;99.90
6106;DHT22;3083;51.508;7.966;2024-01-07T02:43:15;0.50;99.90
6106;DHT22;3083;51.508;7.966;2024-01-07T02:45:42;0.40;99.90
6106;DHT22;3083;51.508;7.966;2024-01-07T02:48:09;0.40;99.90
6106;DHT22;3083;51.508;7.966;2024-01-07T02:50:35;0.40;99.90
6106;DHT22;3083;51.508;7.966;2024-01-07T02:53:02;0.40;99.90
6106;DHT22;3083;51.508;7.966;2024-01-07T02:55:29;0.50;99.90
6106;DHT22;3083;51.508;7.966;2024-01-07T02:57:56;0.50;99.90
6106;DHT22;3083;51.508;7.966;2024-01-07T03:00:24;0.40;99.90
6106;DHT22;3083;51.508;7.966;2024-01-07T03:02:51;0.50;99.90
6106;DHT22;3083;51.508;7.966;2024-01-07T03:05:18;0.40;99.90
6106;DHT22;3083;51.508;7.966;2024-01-07T03:07:45;0.50;99.90
6106;DHT22;3083;51.508;7.966;2024-01-07T03:10:12;0.40;99.90
6106;DHT22;3083;51.508;7.966;2024-01-07T03:12:39;0.50;99.90
6106;DHT22;3083;51.508;7.966;2024-01-07T03:15:06;0.50;99.90
6106;DHT22;3083;51.508;7.966;2024-01-07T03:17:35;0.50;99.90
6106;DHT22;3083;51.508;7.966;2024-01-07T03:20:02;0.50;99.90
6106;DHT22;3083;51.508;7.966;2024-01-07T03:22:29;0.50;99.90
6106;DHT22;3083;51.508;7.966;2024-01-07T03:24:56;0.60;99.90
6106;DHT22;3083;51.508;7.966;2024-01-07T03:27:23;0.60;99.90
6106;DHT22;3083;51.508;7.966;2024-01-07T03:29:50;0.50;99.90
6106;DHT22;3083;51.508;7.966;2024-01-07T03:32:17;0.50;99.90
6106;DHT22;3083;51.508;7.966;2024-01-07T03:34:45;0.50;99.90
6106;DHT22;3083;51.508;7.966;2024-01-07T03:37:12;0.50;99.90
6106;DHT22;3083;51.508;7.966;2024-01-07T03:39:39;0.50;99.90
6106;DHT22;3083;51.508;7.966;2024-01-07T03:42:06;0.50;99.90
6106;DHT22;3083;51.508;7.966;2024-01-07T03:44:37;0.50;99.90
6106;DHT22;3083;51.508;7.966;2024-01-07T03:47:04;0.50;99.90
6106;DHT22;3083;51.508;7.966;2024-01-07T03:49:30;0.50;99.90
6106;DHT22;3083;51.508;7.966;2024-01-07T03:51:59;0.50;99.90
6106;DHT22;3083;51.508;7.966;2024-01-07T03:54:25;0.50;99.90
6106;DHT22;3083;51.508;7.966;2024-01-07T03:56:52;0.50;99.90
6106;DHT22;3083;51.508;7.966;2024-01-07T03:59:19;0.50;99.90
6106;DHT22;3083;51.508;7.966;2024-01-07T04:01:48;0.50;99.90
6106;DHT22;3083;51.508;7.966;2024-01-07T04:04:14;0.40;99.90
6106;DHT22;3083;51.508;7.966;2024-01-07T04:06:42;0.40;99.90
6106;DHT22;3083;51.508;7.966;2024-01-07T04:09:10;0.40;99.90
6106;DHT22;3083;51.508;7.966;2024-01-07T04:11:39;0.40;99.90
6106;DHT22;3083;51.508;7.966;2024-01-07T04:14:07;0.40;99.90
6106;DHT22;3083;51.508;7.966;2024-01-07T04:16:34;0.30;99.90
6106;DHT22;3083;51.508;7.966;2024-01-07T04:19:01;0.40;99.90
6106;DHT22;3083;51.508;7.966;2024-01-07T04:21:28;0.30;99.90
6106;DHT22;3083;51.508;7.966;2024-01-07T04:23:55;0.30;99.90
6106;DHT22;3083;51.508;7.966;2024-01-07T04:26:23;0.30;99.90
6106;DHT22;3083;51.508;7.966;2024-01-07T04:28:50;0.30;99.90
6106;DHT22;3083;51.508;7.966;2024-01-07T04:31:17;0.30;99.90
6106;DHT22;3083;51.508;7.966;2024-01-07T04:33:43;0.30;99.90
6106;DHT22;3083;51.508;7.966;2024-01-07T04:36:10;0.30;99.90
6106;DHT22;3083;51.508;7.966;2024-01-07T04:38:37;0.30;99.90
6106;DHT22;3083;51.508;7.966;2024-01-07T04:41:04;0.30;99.90
6106;DHT22;3083;51.508;7.966;2024-01-07T04:43:34;0.30;99.90
6106;DHT22;3083;51.508;7.966;2024-01-07T04:46:00;0.30;99.90
6106;DHT22;3083;51.508;7.966;2024-01-07T04:48:27;0.20;99.90
6106;DHT22;3083;51.508;7.966;2024-01-07T04:50:54;0.30;99.90
6106;DHT22;3083;51.508;7.966;2024-01-07T04:53:21;0.30;99.90
6106;DHT22;3083;51.508;7.966;2024-01-07T04:55:48;0.20;99.90
6106;DHT22;3083;51.508;7.966;2024-01-07T04:58:15;0.20;99.90
6106;DHT22;3083;51.508;7.966;2024-01-07T05:00:43;0.20;99.90
6106;DHT22;3083;51.508;7.966;2024-01-07T05:03:10;0.20;99.90
6106;DHT22;3083;51.508;7.966;2024-01-07T05:05:36;0.20;99.90
6106;DHT22;3083;51.508;7.966;2024-01-07T05:08:04;0.20;99.90
6106;DHT22;3083;51.508;7.966;2024-01-07T05:10:31;0.20;99.90
6106;DHT22;3083;51.508;7.966;2024-01-07T05:12:59;0.20;99.90
6106;DHT22;3083;51.508;7.966;2024-01-07T05:15:30;0.20;99.90
6106;DHT22;3083;51.508;7.966;2024-01-07T05:17:58;0.20;99.90
6106;DHT22;3083;51.508;7.966;2024-01-07T05:20:25;0.20;99.90
6106;DHT22;3083;51.508;7.966;2024-01-07T05:22:52;0.20;99.90
6106;DHT22;3083;51.508;7.966;2024-01-07T05:25:19;0.10;99.90
6106;DHT22;3083;51.508;7.966;2024-01-07T05:27:46;0.10;99.90
6106;DHT22;3083;51.508;7.966;2024-01-07T05:30:13;0.10;99.90
6106;DHT22;3083;51.508;7.966;2024-01-07T05:32:39;0.10;99.90
6106;DHT22;3083;51.508;7.966;2024-01-07T05:35:08;0.10;99.90
6106;DHT22;3083;51.508;7.966;2024-01-07T05:37:35;0.10;99.90
6106;DHT22;3083;51.508;7.966;2024-01-07T05:40:03;0.10;99.90
6106;DHT22;3083;51.508;7.966;2024-01-07T05:42:31;0.10;99.90
6106;DHT22;3083;51.508;7.966;2024-01-07T05:44:58;0.10;99.90
6106;DHT22;3083;51.508;7.966;2024-01-07T05:47:25;0.10;99.90
6106;DHT22;3083;51.508;7.966;2024-01-07T05:49:52;0.10;99.90
6106;DHT22;3083;51.508;7.966;2024-01-07T05:52:20;0.10;99.90
6106;DHT22;3083;51.508;7.966;2024-01-07T05:54:47;0.10;99.90
6106;DHT22;3083;51.508;7.966;2024-01-07T05:57:13;0.10;99.90
6106;DHT22;3083;51.508;7.966;2024-01-07T05:59:40;0.10;99.90
6106;DHT22;3083;51.508;7.966;2024-01-07T06:02:07;0.10;99.90
6106;DHT22;3083;51.508;7.966;2024-01-07T06:04:34;0.10;99.90
6106;DHT22;3083;51.508;7.966;2024-01-07T06:07:01;0.10;99.90
6106;DHT22;3083;51.508;7.966;2024-01-07T06:09:29;0.10;99.90
6106;DHT22;3083;51.508;7.966;2024-01-07T06:11:56;0.10;99.90
6106;DHT22;3083;51.508;7.966;2024-01-07T06:14:22;0.10;99.90
6106;DHT22;3083;51.508;7.966;2024-01-07T06:16:50;0.10;99.90
6106;DHT22;3083;51.508;7.966;2024-01-07T06:19:17;0.00;99.90
6106;DHT22;3083;51.508;7.966;2024-01-07T06:21:44;0.00;99.90
6106;DHT22;3083;51.508;7.966;2024-01-07T06:24:11;0.00;99.90
6106;DHT22;3083;51.508;7.966;2024-01-07T06:26:40;0.00;99.90
6106;DHT22;3083;51.508;7.966;2024-01-07T06:29:07;0.00;99.90
6106;DHT22;3083;51.508;7.966;2024-01-07T06:31:35;0.00;99.90
6106;DHT22;3083;51.508;7.966;2024-01-07T06:34:02;0.00;99.90
6106;DHT22;3083;51.508;7.966;2024-01-07T06:36:29;-0.10;99.90
6106;DHT22;3083;51.508;7.966;2024-01-07T06:38:55;-0.10;99.90
6106;DHT22;3083;51.508;7.966;2024-01-07T06:41:22;-0.10;99.90
6106;DHT22;3083;51.508;7.966;2024-01-07T06:43:50;-0.10;99.90
6106;DHT22;3083;51.508;7.966;2024-01-07T06:46:19;-0.10;99.90
6106;DHT22;3083;51.508;7.966;2024-01-07T06:48:46;-0.20;99.90
6106;DHT22;3083;51.508;7.966;2024-01-07T06:51:14;-0.20;99.90
6106;DHT22;3083;51.508;7.966;2024-01-07T06:53:41;-0.20;99.90
6106;DHT22;3083;51.508;7.966;2024-01-07T06:56:08;-0.20;99.90
6106;DHT22;3083;51.508;7.966;2024-01-07T06:58:35;-0.10;99.90
6106;DHT22;3083;51.508;7.966;2024-01-07T07:01:03;-0.10;99.90
6106;DHT22;3083;51.508;7.966;2024-01-07T07:03:33;-0.20;99.90
6106;DHT22;3083;51.508;7.966;2024-01-07T07:05:59;-0.20;99.90
6106;DHT22;3083;51.508;7.966;2024-01-07T07:08:26;-0.20;99.90
6106;DHT22;3083;51.508;7.966;2024-01-07T07:10:53;-0.20;99.90
6106;DHT22;3083;51.508;7.966;2024-01-07T07:13:20;-0.30;99.90
6106;DHT22;3083;51.508;7.966;2024-01-07T07:15:47;-0.40;99.90
6106;DHT22;3083;51.508;7.966;2024-01-07T07:18:15;-0.40;99.90
6106;DHT22;3083;51.508;7.966;2024-01-07T07:20:42;-0.50;99.90
6106;DHT22;3083;51.508;7.966;2024-01-07T07:23:08;-0.60;99.90
6106;DHT22;3083;51.508;7.966;2024-01-07T07:25:35;-0.60;99.90
6106;DHT22;3083;51.508;7.966;2024-01-07T07:28:02;-0.60;99.90
6106;DHT22;3083;51.508;7.966;2024-01-07T07:30:29;-0.60;99.90
6106;DHT22;3083;51.508;7.966;2024-01-07T07:32:56;-0.60;99.90
6106;DHT22;3083;51.508;7.966;2024-01-07T07:35:24;-0.70;99.90
6106;DHT22;3083;51.508;7.966;2024-01-07T07:37:51;-0.70;99.90
6106;DHT22;3083;51.508;7.966;2024-01-07T07:40:18;-0.70;99.90
6106;DHT22;3083;51.508;7.966;2024-01-07T07:42:45;-0.80;99.90
6106;DHT22;3083;51.508;7.966;2024-01-07T07:45:12;-0.80;99.90
6106;DHT22;3083;51.508;7.966;2024-01-07T07:47:38;-0.70;99.90
6106;DHT22;3083;51.508;7.966;2024-01-07T07:50:07;-0.80;99.90
6106;DHT22;3083;51.508;7.966;2024-01-07T07:52:36;-0.80;99.90
6106;DHT22;3083;51.508;7.966;2024-01-07T07:55:03;-0.70;99.90
6106;DHT22;3083;51.508;7.966;2024-01-07T07:57:32;-0.70;99.90
6106;DHT22;3083;51.508;7.966;2024-01-07T07:59:59;-0.80;99.90
6106;DHT22;3083;51.508;7.966;2024-01-07T08:02:26;-0.80;99.90
6106;DHT22;3083;51.508;7.966;2024-01-07T08:04:52;-0.70;99.90
6106;DHT22;3083;51.508;7.966;2024-01-07T08:07:19;-0.70;99.90
6106;DHT22;3083;51.508;7.966;2024-01-07T08:09:48;-0.80;99.90
6106;DHT22;3083;51.508;7.966;2024-01-07T08:12:14;-0.80;99.90
6106;DHT22;3083;51.508;7.966;2024-01-07T08:14:41;-0.80;99.90
6106;DHT22;3083;51.508;7.966;2024-01-07T08:17:08;-0.80;99.90
6106;DHT22;3083;51.508;7.966;2024-01-07T08:19:36;-0.80;99.90
6106;DHT22;3083;51.508;7.966;2024-01-07T08:22:03;-0.80;99.90
6106;DHT22;3083;51.508;7.966;2024-01-07T08:24:30;-0.70;99.90
6106;DHT22;3083;51.508;7.966;2024-01-07T08:26:58;-0.80;99.90
6106;DHT22;3083;51.508;7.966;2024-01-07T08:29:25;-0.80;99.90
6106;DHT22;3083;51.508;7.966;2024-01-07T08:31:52;-0.80;99.90
6106;DHT22;3083;51.508;7.966;2024-01-07T08:34:18;-0.80;99.90
6106;DHT22;3083;51.508;7.966;2024-01-07T08:36:45;-0.80;99.90
6106;DHT22;3083;51.508;7.966;2024-01-07T08:39:14;-0.80;99.90
6106;DHT22;3083;51.508;7.966;2024-01-07T08:41:41;-0.80;99.90
6106;DHT22;3083;51.508;7.966;2024-01-07T08:44:09;-0.80;99.90
6106;DHT22;3083;51.508;7.966;2024-01-07T08:46:36;-0.90;99.90
6106;DHT22;3083;51.508;7.966;2024-01-07T08:49:03;-0.90;99.90
6106;DHT22;3083;51.508;7.966;2024-01-07T08:51:30;-0.90;99.90
6106;DHT22;3083;51.508;7.966;2024-01-07T08:53:57;-0.90;99.90
6106;DHT22;3083;51.508;7.966;2024-01-07T08:56:24;-0.90;99.90
6106;DHT22;3083;51.508;7.966;2024-01-07T08:58:51;-0.90;99.90
6106;DHT22;3083;51.508;7.966;2024-01-07T09:01:20;-0.90;99.90
6106;DHT22;3083;51.508;7.966;2024-01-07T09:03:47;-0.90;99.90
6106;DHT22;3083;51.508;7.966;2024-01-07T09:06:13;-0.90;99.90
6106;DHT22;3083;51.508;7.966;2024-01-07T09:08:40;-0.90;99.90
6106;DHT22;3083;51.508;7.966;2024-01-07T09:11:08;-0.90;99.90
6106;DHT22;3083;51.508;7.966;2024-01-07T09:13:36;-0.90;99.90
6106;DHT22;3083;51.508;7.966;2024-01-07T09:16:04;-0.90;99.90
6106;DHT22;3083;51.508;7.966;2024-01-07T09:18:32;-0.90;99.90
6106;DHT22;3083;51.508;7.966;2024-01-07T09:20:59;-0.90;99.90
6106;DHT22;3083;51.508;7.966;2024-01-07T09:23:25;-1.00;99.90
6106;DHT22;3083;51.508;7.966;2024-01-07T09:25:52;-1.00;99.90
6106;DHT22;3083;51.508;7.966;2024-01-07T09:28:19;-1.00;99.90
6106;DHT22;3083;51.508;7.966;2024-01-07T09:30:46;-0.90;99.90
6106;DHT22;3083;51.508;7.966;2024-01-07T09:33:13;-0.90;99.90
6106;DHT22;3083;51.508;7.966;2024-01-07T09:35:42;-0.90;99.90
6106;DHT22;3083;51.508;7.966;2024-01-07T09:38:09;-0.90;99.90
6106;DHT22;3083;51.508;7.966;2024-01-07T09:40:38;-0.90;99.90
6106;DHT22;3083;51.508;7.966;2024-01-07T09:43:05;-0.90;99.90
6106;DHT22;3083;51.508;7.966;2024-01-07T09:45:32;-0.90;99.90
6106;DHT22;3083;51.508;7.966;2024-01-07T09:47:59;-0.90;99.90
6106;DHT22;3083;51.508;7.966;2024-01-07T09:50:26;-0.90;99.90
6106;DHT22;3083;51.508;7.966;2024-01-07T09:52:56;-0.80;99.90
6106;DHT22;3083;51.508;7.966;2024-01-07T09:55:27;-0.80;99.90
6106;DHT22;3083;51.508;7.966;2024-01-07T09:57:58;-0.70;99.90
6106;DHT22;3083;51.508;7.966;2024-01-07T10:00:25;-0.70;99.90
6106;DHT22;3083;51.508;7.966;2024-01-07T10:02:52;-0.70;99.90
6106;DHT22;3083;51.508;7.966;2024-01-07T10:05:19;-0.70;99.90
6106;DHT22;3083;51.508;7.966;2024-01-07T10:07:46;-0.70;99.90
6106;DHT22;3083;51.508;7.966;2024-01-07T10:10:16;-0.60;99.90
6106;DHT22;3083;51.508;7.966;2024-01-07T10:12:44;-0.60;99.90
6106;DHT22;3083;51.508;7.966;2024-01-07T10:15:11;-0.60;99.90
6106;DHT22;3083;51.508;7.966;2024-01-07T10:17:39;-0.60;99.90
6106;DHT22;3083;51.508;7.966;2024-01-07T10:20:06;-0.60;99.90
6106;DHT22;3083;51.508;7.966;2024-01-07T10:22:36;-0.50;99.90
6106;DHT22;3083;51.508;7.966;2024-01-07T10:25:03;-0.50;99.90
6106;DHT22;3083;51.508;7.966;2024-01-07T10:27:33;-0.50;99.90
6106;DHT22;3083;51.508;7.966;2024-01-07T10:30:01;-0.40;99.90
6106;DHT22;3083;51.508;7.966;2024-01-07T10:32:28;-0.40;99.90
6106;DHT22;3083;51.508;7.966;2024-01-07T10:35:03;-0.40;99.90
6106;DHT22;3083;51.508;7.966;2024-01-07T10:37:30;-0.30;99.90
6106;DHT22;3083;51.508;7.966;2024-01-07T10:39:58;-0.40;99.90
6106;DHT22;3083;51.508;7.966;2024-01-07T10:42:31;-0.40;99.90
6106;DHT22;3083;51.508;7.966;2024-01-07T10:44:59;-0.40;99.90
6106;DHT22;3083;51.508;7.966;2024-01-07T10:47:29;-0.50;99.90
6106;DHT22;3083;51.508;7.966;2024-01-07T10:49:57;-0.60;99.90
6106;DHT22;3083;51.508;7.966;2024-01-07T10:52:27;-0.60;99.90
6106;DHT22;3083;51.508;7.966;2024-01-07T10:54:56;-0.50;99.90
6106;DHT22;3083;51.508;7.966;2024-01-07T10:57:30;-0.60;99.90
6106;DHT22;3083;51.508;7.966;2024-01-07T11:00:00;-0.60;99.90
6106;DHT22;3083;51.508;7.966;2024-01-07T11:02:32;-0.60;99.90
6106;DHT22;3083;51.508;7.966;2024-01-07T11:05:07;-0.60;99.90
6106;DHT22;3083;51.508;7.966;2024-01-07T11:07:41;-0.70;99.90
6106;DHT22;3083;51.508;7.966;2024-01-07T11:10:11;-0.70;99.90
6106;DHT22;3083;51.508;7.966;2024-01-07T11:12:40;-0.80;99.90
6106;DHT22;3083;51.508;7.966;2024-01-07T11:15:08;-0.80;99.90
6106;DHT22;3083;51.508;7.966;2024-01-07T11:17:41;-0.80;99.90
6106;DHT22;3083;51.508;7.966;2024-01-07T11:20:13;-0.80;99.90
6106;DHT22;3083;51.508;7.966;2024-01-07T11:22:44;-0.80;99.90
6106;DHT22;3083;51.508;7.966;2024-01-07T11:25:28;-0.80;99.90
6106;DHT22;3083;51.508;7.966;2024-01-07T11:27:56;-0.90;99.90
6106;DHT22;3083;51.508;7.966;2024-01-07T11:30:26;-0.90;99.90
6106;DHT22;3083;51.508;7.966;2024-01-07T11:32:59;-0.90;99.90
6106;DHT22;3083;51.508;7.966;2024-01-07T11:38:23;-0.90;99.90
6106;DHT22;3083;51.508;7.966;2024-01-07T11:40:50;-0.90;99.90
6106;DHT22;3083;51.508;7.966;2024-01-07T11:43:18;-0.90;99.90
6106;DHT22;3083;51.508;7.966;2024-01-07T11:45:46;-1.00;99.90
6106;DHT22;3083;51.508;7.966;2024-01-07T11:48:13;-1.00;99.90
6106;DHT22;3083;51.508;7.966;2024-01-07T11:50:41;-1.10;99.90
6106;DHT22;3083;51.508;7.966;2024-01-07T11:53:08;-1.00;99.90
6106;DHT22;3083;51.508;7.966;2024-01-07T11:55:35;-1.10;99.90
6106;DHT22;3083;51.508;7.966;2024-01-07T11:58:02;-1.10;99.90
6106;DHT22;3083;51.508;7.966;2024-01-07T12:00:31;-1.10;99.90
6106;DHT22;3083;51.508;7.966;2024-01-07T12:03:01;-1.10;99.90
6106;DHT22;3083;51.508;7.966;2024-01-07T12:05:28;-1.10;99.90
6106;DHT22;3083;51.508;7.966;2024-01-07T12:07:55;-1.10;99.90
6106;DHT22;3083;51.508;7.966;2024-01-07T12:10:23;-1.10;99.90
6106;DHT22;3083;51.508;7.966;2024-01-07T12:12:50;-1.00;99.90
6106;DHT22;3083;51.508;7.966;2024-01-07T12:15:18;-0.90;99.90
6106;DHT22;3083;51.508;7.966;2024-01-07T12:17:55;-0.90;99.90
6106;DHT22;3083;51.508;7.966;2024-01-07T12:20:25;-0.90;99.90
6106;DHT22;3083;51.508;7.966;2024-01-07T12:22:52;-0.80;99.90
6106;DHT22;3083;51.508;7.966;2024-01-07T12:25:22;-0.80;99.90
6106;DHT22;3083;51.508;7.966;2024-01-07T12:27:49;-0.70;99.90
6106;DHT22;3083;51.508;7.966;2024-01-07T12:30:23;-0.80;99.90
6106;DHT22;3083;51.508;7.966;2024-01-07T12:32:51;-0.80;99.90
6106;DHT22;3083;51.508;7.966;2024-01-07T12:35:18;-0.90;99.90
6106;DHT22;3083;51.508;7.966;2024-01-07T12:37:47;-0.90;99.90
6106;DHT22;3083;51.508;7.966;2024-01-07T12:40:14;-0.90;99.90
6106;DHT22;3083;51.508;7.966;2024-01-07T12:42:41;-0.90;99.90
6106;DHT22;3083;51.508;7.966;2024-01-07T12:45:12;-0.90;99.90
6106;DHT22;3083;51.508;7.966;2024-01-07T12:47:40;-1.00;99.90
6106;DHT22;3083;51.508;7.966;2024-01-07T12:50:08;-1.00;99.90
6106;DHT22;3083;51.508;7.966;2024-01-07T12:52:37;-1.00;99.90
6106;DHT22;3083;51.508;7.966;2024-01-07T12:55:07;-1.00;99.90
6106;DHT22;3083;51.508;7.966;2024-01-07T12:57:34;-1.00;99.90
6106;DHT22;3083;51.508;7.966;2024-01-07T13:00:03;-1.00;99.90
6106;DHT22;3083;51.508;7.966;2024-01-07T13:02:32;-1.00;99.90
6106;DHT22;3083;51.508;7.966;2024-01-07T13:04:59;-1.00;99.90
6106;DHT22;3083;51.508;7.966;2024-01-07T13:07:26;-1.00;99.90
6106;DHT22;3083;51.508;7.966;2024-01-07T13:09:52;-1.00;99.90
6106;DHT22;3083;51.508;7.966;2024-01-07T13:12:21;-1.00;99.90
6106;DHT22;3083;51.508;7.966;2024-01-07T13:14:48;-1.00;99.90
6106;DHT22;3083;51.508;7.966;2024-01-07T13:17:15;-1.00;99.90
6106;DHT22;3083;51.508;7.966;2024-01-07T13:19:42;-1.00;99.90
6106;DHT22;3083;51.508;7.966;2024-01-07T13:22:09;-1.00;99.90
6106;DHT22;3083;51.508;7.966;2024-01-07T13:24:37;-1.00;99.90
6106;DHT22;3083;51.508;7.966;2024-01-07T13:27:04;-1.00;99.90
6106;DHT22;3083;51.508;7.966;2024-01-07T13:29:33;-1.00;99.90
6106;DHT22;3083;51.508;7.966;2024-01-07T13:32:00;-1.10;99.90
6106;DHT22;3083;51.508;7.966;2024-01-07T13:34:27;-1.10;99.90
6106;DHT22;3083;51.508;7.966;2024-01-07T13:36:55;-1.10;99.90
6106;DHT22;3083;51.508;7.966;2024-01-07T13:39:22;-1.10;99.90
6106;DHT22;3083;51.508;7.966;2024-01-07T13:41:49;-1.10;99.90
6106;DHT22;3083;51.508;7.966;2024-01-07T13:44:16;-1.10;99.90
6106;DHT22;3083;51.508;7.966;2024-01-07T13:46:46;-1.10;99.90
6106;DHT22;3083;51.508;7.966;2024-01-07T13:49:13;-1.10;99.90
6106;DHT22;3083;51.508;7.966;2024-01-07T13:51:40;-1.10;99.90
6106;DHT22;3083;51.508;7.966;2024-01-07T13:54:07;-1.10;99.90
6106;DHT22;3083;51.508;7.966;2024-01-07T13:56:36;-1.10;99.90
6106;DHT22;3083;51.508;7.966;2024-01-07T13:59:06;-1.00;99.90
6106;DHT22;3083;51.508;7.966;2024-01-07T14:01:33;-1.00;99.90
6106;DHT22;3083;51.508;7.966;2024-01-07T14:04:02;-1.00;99.90
6106;DHT22;3083;51.508;7.966;2024-01-07T14:06:29;-1.00;99.90
6106;DHT22;3083;51.508;7.966;2024-01-07T14:08:56;-1.00;99.90
6106;DHT22;3083;51.508;7.966;2024-01-07T14:11:23;-1.00;99.90
6106;DHT22;3083;51.508;7.966;2024-01-07T14:13:50;-1.00;99.90
6106;DHT22;3083;51.508;7.966;2024-01-07T14:16:17;-1.00;99.90
6106;DHT22;3083;51.508;7.966;2024-01-07T14:18:44;-1.00;99.90
6106;DHT22;3083;51.508;7.966;2024-01-07T14:21:12;-1.00;99.90
6106;DHT22;3083;51.508;7.966;2024-01-07T14:23:39;-1.10;99.90
6106;DHT22;3083;51.508;7.966;2024-01-07T14:26:06;-1.00;99.90
6106;DHT22;3083;51.508;7.966;2024-01-07T14:28:33;-1.00;99.90
6106;DHT22;3083;51.508;7.966;2024-01-07T14:31:01;-1.00;99.90
6106;DHT22;3083;51.508;7.966;2024-01-07T14:33:29;-1.00;99.90
6106;DHT22;3083;51.508;7.966;2024-01-07T14:35:56;-1.00;99.90
6106;DHT22;3083;51.508;7.966;2024-01-07T14:38:24;-1.00;99.90
6106;DHT22;3083;51.508;7.966;2024-01-07T14:40:52;-1.00;99.90
6106;DHT22;3083;51.508;7.966;2024-01-07T14:43:18;-1.10;99.90
6106;DHT22;3083;51.508;7.966;2024-01-07T14:45:47;-1.10;99.90
6106;DHT22;3083;51.508;7.966;2024-01-07T14:48:14;-1.10;99.90
6106;DHT22;3083;51.508;7.966;2024-01-07T14:50:40;-1.00;99.90
6106;DHT22;3083;51.508;7.966;2024-01-07T14:53:11;-1.10;99.90
6106;DHT22;3083;51.508;7.966;2024-01-07T14:55:39;-1.10;99.90
6106;DHT22;3083;51.508;7.966;2024-01-07T14:58:06;-1.10;99.90
6106;DHT22;3083;51.508;7.966;2024-01-07T15:00:33;-1.10;99.90
6106;DHT22;3083;51.508;7.966;2024-01-07T15:03:00;-1.10;99.90
6106;DHT22;3083;51.508;7.966;2024-01-07T15:05:27;-1.00;99.90
6106;DHT22;3083;51.508;7.966;2024-01-07T15:07:54;-1.00;99.90
6106;DHT22;3083;51.508;7.966;2024-01-07T15:10:21;-1.00;99.90
6106;DHT22;3083;51.508;7.966;2024-01-07T15:12:49;-1.00;99.90
6106;DHT22;3083;51.508;7.966;2024-01-07T15:15:16;-1.00;99.90
6106;DHT22;3083;51.508;7.966;2024-01-07T15:17:44;-1.00;99.90
6106;DHT22;3083;51.508;7.966;2024-01-07T15:20:11;-1.00;99.90
6106;DHT22;3083;51.508;7.966;2024-01-07T15:22:38;-1.00;99.90
6106;DHT22;3083;51.508;7.966;2024-01-07T15:25:06;-1.00;99.90
6106;DHT22;3083;51.508;7.966;2024-01-07T15:27:33;-1.00;99.90
6106;DHT22;3083;51.508;7.966;2024-01-07T15:30:03;-1.00;99.90
6106;DHT22;3083;51.508;7.966;2024-01-07T15:32:31;-1.00;99.90
6106;DHT22;3083;51.508;7.966;2024-01-07T15:34:57;-1.00;99.90
6106;DHT22;3083;51.508;7.966;2024-01-07T15:37:25;-1.00;99.90
6106;DHT22;3083;51.508;7.966;2024-01-07T15:39:52;-1.00;99.90
6106;DHT22;3083;51.508;7.966;2024-01-07T15:42:20;-1.00;99.90
6106;DHT22;3083;51.508;7.966;2024-01-07T15:44:46;-1.00;99.90
6106;DHT22;3083;51.508;7.966;2024-01-07T15:47:15;-1.00;99.90
6106;DHT22;3083;51.508;7.966;2024-01-07T15:49:41;-0.90;99.90
6106;DHT22;3083;51.508;7.966;2024-01-07T15:52:08;-1.00;99.90
6106;DHT22;3083;51.508;7.966;2024-01-07T15:54:35;-1.00;99.90
6106;DHT22;3083;51.508;7.966;2024-01-07T15:57:02;-1.00;99.90
6106;DHT22;3083;51.508;7.966;2024-01-07T15:59:30;-1.00;99.90
6106;DHT22;3083;51.508;7.966;2024-01-07T16:01:57;-1.00;99.90
6106;DHT22;3083;51.508;7.966;2024-01-07T16:04:25;-1.00;99.90
6106;DHT22;3083;51.508;7.966;2024-01-07T16:06:52;-1.00;99.90
6106;DHT22;3083;51.508;7.966;2024-01-07T16:09:19;-1.00;99.90
6106;DHT22;3083;51.508;7.966;2024-01-07T16:11:47;-1.00;99.90